sensor_id;sensor_type;location;lat;lon;timestamp;temperature;humidity
14723;DHT22;7452;55.594;12.986;2022-11-15T00:02:14;9.80;99.90
14723;DHT22;7452;55.594;12.986;2022-11-15T00:04:41;9.80;99.90
14723;DHT22;7452;55.594;12.986;2022-11-15T00:07:09;9.80;99.90
14723;DHT22;7452;55.594;12.986;2022-11-15T00:09:37;9.80;99.90
14723;DHT22;7452;55.594;12.986;2022-11-15T00:12:04;9.70;99.90
14723;DHT22;7452;55.594;12.986;2022-11-15T00:14:31;9.70;99.90
14723;DHT22;7452;55.594;12.986;2022-11-15T00:16:58;9.80;99.90
14723;DHT22;7452;55.594;12.986;2022-11-15T00:19:25;9.80;99.90
14723;DHT22;7452;55.594;12.986;2022-11-15T00:21:52;9.80;99.90
14723;DHT22;7452;55.594;12.986;2022-11-15T00:24:20;9.80;99.90
14723;DHT22;7452;55.594;12.986;2022-11-15T00:26:47;9.80;99.90
14723;DHT22;7452;55.594;12.986;2022-11-15T00:29:14;9.80;99.90
14723;DHT22;7452;55.594;12.986;2022-11-15T00:31:41;9.80;99.90
14723;DHT22;7452;55.594;12.986;2022-11-15T00:34:09;9.80;99.90
14723;DHT22;7452;55.594;12.986;2022-11-15T00:36:36;9.80;99.90
14723;DHT22;7452;55.594;12.986;2022-11-15T00:39:04;9.80;99.90
14723;DHT22;7452;55.594;12.986;2022-11-15T00:41:33;9.80;99.90
14723;DHT22;7452;55.594;12.986;2022-11-15T00:44:00;9.80;99.90
14723;DHT22;7452;55.594;12.986;2022-11-15T00:46:27;9.80;99.90
14723;DHT22;7452;55.594;12.986;2022-11-15T00:48:54;9.80;99.90
14723;DHT22;7452;55.594;12.986;2022-11-15T00:51:21;9.80;99.90
14723;DHT22;7452;55.594;12.986;2022-11-15T00:53:48;9.80;99.90
14723;DHT22;7452;55.594;12.986;2022-11-15T00:56:15;9.80;99.90
14723;DHT22;7452;55.594;12.986;2022-11-15T00:58:43;9.80;99.90
14723;DHT22;7452;55.594;12.986;2022-11-15T01:01:12;9.80;99.90
14723;DHT22;7452;55.594;12.986;2022-11-15T01:03:40;9.80;99.90
14723;DHT22;7452;55.594;12.986;2022-11-15T01:06:08;9.70;99.90
14723;DHT22;7452;55.594;12.986;2022-11-15T01:08:35;9.80;99.90
14723;DHT22;7452;55.594;12.986;2022-11-15T01:11:03;9.70;99.90
14723;DHT22;7452;55.594;12.986;2022-11-15T01:13:31;9.70;99.90
14723;DHT22;7452;55.594;12.986;2022-11-15T01:16:05;9.80;99.90
14723;DHT22;7452;55.594;12.986;2022-11-15T01:18:32;9.80;99.90
14723;DHT22;7452;55.594;12.986;2022-11-15T01:20:59;9.70;99.90
14723;DHT22;7452;55.594;12.986;2022-11-15T01:23:26;9.70;99.90
14723;DHT22;7452;55.594;12.986;2022-11-15T01:25:58;9.70;99.90
14723;DHT22;7452;55.594;12.986;2022-11-15T01:28:25;9.70;99.90
14723;DHT22;7452;55.594;12.986;2022-11-15T01:30:57;9.70;99.90
14723;DHT22;7452;55.594;12.986;2022-11-15T01:33:26;9.70;99.90
14723;DHT22;7452;55.594;12.986;2022-11-15T01:35:53;9.70;99.90
14723;DHT22;7452;55.594;12.986;2022-11-15T01:38:21;9.70;99.90
14723;DHT22;7452;55.594;12.986;2022-11-15T01:40:48;9.70;99.90
14723;DHT22;7452;55.594;12.986;2022-11-15T01:43:20;9.70;99.90
14723;DHT22;7452;55.594;12.986;2022-11-15T01:45:50;9.70;99.90
14723;DHT22;7452;55.594;12.986;2022-11-15T01:48:20;9.70;99.90
14723;DHT22;7452;55.594;12.986;2022-11-15T01:50:49;9.80;99.90
14723;DHT22;7452;55.594;12.986;2022-11-15T01:53:17;9.70;99.90
14723;DHT22;7452;55.594;12.986;2022-11-15T01:55:46;9.70;99.90
14723;DHT22;7452;55.594;12.986;2022-11-15T01:58:13;9.70;99.90
14723;DHT22;7452;55.594;12.986;2022-11-15T02:00:40;9.70;99.90
14723;DHT22;7452;55.594;12.986;2022-11-15T02:03:07;9.70;99.90
14723;DHT22;7452;55.594;12.986;2022-11-15T02:05:35;9.70;99.90
14723;DHT22;7452;55.594;12.986;2022-11-15T02:08:04;9.70;99.90
14723;DHT22;7452;55.594;12.986;2022-11-15T02:10:32;9.70;99.90
14723;DHT22;7452;55.594;12.986;2022-11-15T02:13:00;9.70;99.90
14723;DHT22;7452;55.594;12.986;2022-11-15T02:15:34;9.70;99.90
14723;DHT22;7452;55.594;12.986;2022-11-15T02:18:12;9.70;99.90
14723;DHT22;7452;55.594;12.986;2022-11-15T02:20:58;9.70;99.90
14723;DHT22;7452;55.594;12.986;2022-11-15T02:27:26;9.70;99.90
14723;DHT22;7452;55.594;12.986;2022-11-15T02:30:13;9.60;99.90
14723;DHT22;7452;55.594;12.986;2022-11-15T02:32:44;9.60;99.90
14723;DHT22;7452;55.594;12.986;2022-11-15T02:35:16;9.60;99.90
14723;DHT22;7452;55.594;12.986;2022-11-15T02:37:47;9.70;99.90
14723;DHT22;7452;55.594;12.986;2022-11-15T02:40:26;9.60;99.90
14723;DHT22;7452;55.594;12.986;2022-11-15T02:42:57;9.70;99.90
14723;DHT22;7452;55.594;12.986;2022-11-15T02:45:49;9.60;99.90
14723;DHT22;7452;55.594;12.986;2022-11-15T02:48:18;9.60;99.90
14723;DHT22;7452;55.594;12.986;2022-11-15T02:50:46;9.70;99.90
14723;DHT22;7452;55.594;12.986;2022-11-15T02:53:14;9.70;99.90
14723;DHT22;7452;55.594;12.986;2022-11-15T02:55:47;9.60;99.90
14723;DHT22;7452;55.594;12.986;2022-11-15T02:58:38;9.60;99.90
14723;DHT22;7452;55.594;12.986;2022-11-15T03:01:13;9.60;99.90
14723;DHT22;7452;55.594;12.986;2022-11-15T03:03:56;9.60;99.90
14723;DHT22;7452;55.594;12.986;2022-11-15T03:06:33;9.60;99.90
14723;DHT22;7452;55.594;12.986;2022-11-15T03:09:08;9.60;99.90
14723;DHT22;7452;55.594;12.986;2022-11-15T03:11:38;9.60;99.90
14723;DHT22;7452;55.594;12.986;2022-11-15T03:14:15;9.60;99.90
14723;DHT22;7452;55.594;12.986;2022-11-15T03:16:51;9.60;99.90
14723;DHT22;7452;55.594;12.986;2022-11-15T03:19:26;9.60;99.90
14723;DHT22;7452;55.594;12.986;2022-11-15T03:21:58;9.60;99.90
14723;DHT22;7452;55.594;12.986;2022-11-15T03:24:29;9.60;99.90
14723;DHT22;7452;55.594;12.986;2022-11-15T03:26:59;9.60;99.90
14723;DHT22;7452;55.594;12.986;2022-11-15T03:29:32;9.60;99.90
14723;DHT22;7452;55.594;12.986;2022-11-15T03:32:05;9.60;99.90
14723;DHT22;7452;55.594;12.986;2022-11-15T03:34:36;9.60;99.90
14723;DHT22;7452;55.594;12.986;2022-11-15T03:37:05;9.60;99.90
14723;DHT22;7452;55.594;12.986;2022-11-15T03:39:33;9.60;99.90
14723;DHT22;7452;55.594;12.986;2022-11-15T03:42:10;9.60;99.90
14723;DHT22;7452;55.594;12.986;2022-11-15T03:44:45;9.60;99.90
14723;DHT22;7452;55.594;12.986;2022-11-15T03:47:18;9.50;99.90
14723;DHT22;7452;55.594;12.986;2022-11-15T03:49:50;9.60;99.90
14723;DHT22;7452;55.594;12.986;2022-11-15T03:52:19;9.50;99.90
14723;DHT22;7452;55.594;12.986;2022-11-15T03:54:54;9.40;99.90
14723;DHT22;7452;55.594;12.986;2022-11-15T03:57:22;9.40;99.90
14723;DHT22;7452;55.594;12.986;2022-11-15T03:59:49;9.40;99.90
14723;DHT22;7452;55.594;12.986;2022-11-15T04:02:17;9.40;99.90
14723;DHT22;7452;55.594;12.986;2022-11-15T04:04:44;9.50;99.90
14723;DHT22;7452;55.594;12.986;2022-11-15T04:07:11;9.50;99.90
14723;DHT22;7452;55.594;12.986;2022-11-15T04:09:38;9.50;99.90
14723;DHT22;7452;55.594;12.986;2022-11-15T04:12:25;9.50;99.90
14723;DHT22;7452;55.594;12.986;2022-11-15T04:14:58;9.50;99.90
14723;DHT22;7452;55.594;12.986;2022-11-15T04:17:37;9.50;99.90
14723;DHT22;7452;55.594;12.986;2022-11-15T04:20:06;9.60;99.90
14723;DHT22;7452;55.594;12.986;2022-11-15T04:22:52;9.50;99.90
14723;DHT22;7452;55.594;12.986;2022-11-15T04:25:37;9.50;99.90
14723;DHT22;7452;55.594;12.986;2022-11-15T04:28:04;9.50;99.90
14723;DHT22;7452;55.594;12.986;2022-11-15T04:30:31;9.50;99.90
14723;DHT22;7452;55.594;12.986;2022-11-15T04:32:59;9.50;99.90
14723;DHT22;7452;55.594;12.986;2022-11-15T04:35:27;9.50;99.90
14723;DHT22;7452;55.594;12.986;2022-11-15T04:37:54;9.50;99.90
14723;DHT22;7452;55.594;12.986;2022-11-15T04:40:21;9.50;99.90
14723;DHT22;7452;55.594;12.986;2022-11-15T04:42:51;9.50;99.90
14723;DHT22;7452;55.594;12.986;2022-11-15T04:45:18;9.50;99.90
14723;DHT22;7452;55.594;12.986;2022-11-15T04:47:45;9.50;99.90
14723;DHT22;7452;55.594;12.986;2022-11-15T04:50:15;9.50;99.90
14723;DHT22;7452;55.594;12.986;2022-11-15T04:52:43;9.50;99.90
14723;DHT22;7452;55.594;12.986;2022-11-15T04:55:10;9.50;99.90
14723;DHT22;7452;55.594;12.986;2022-11-15T04:57:38;9.60;99.90
14723;DHT22;7452;55.594;12.986;2022-11-15T05:00:09;9.60;99.90
14723;DHT22;7452;55.594;12.986;2022-11-15T05:02:37;9.50;99.90
14723;DHT22;7452;55.594;12.986;2022-11-15T05:05:23;9.60;99.90
14723;DHT22;7452;55.594;12.986;2022-11-15T05:07:50;9.60;99.90
14723;DHT22;7452;55.594;12.986;2022-11-15T05:10:17;9.60;99.90
14723;DHT22;7452;55.594;12.986;2022-11-15T05:12:44;9.60;99.90
14723;DHT22;7452;55.594;12.986;2022-11-15T05:15:12;9.60;99.90
14723;DHT22;7452;55.594;12.986;2022-11-15T05:17:39;9.60;99.90
14723;DHT22;7452;55.594;12.986;2022-11-15T05:20:07;9.60;99.90
14723;DHT22;7452;55.594;12.986;2022-11-15T05:22:36;9.60;99.90
14723;DHT22;7452;55.594;12.986;2022-11-15T05:25:04;9.60;99.90
14723;DHT22;7452;55.594;12.986;2022-11-15T05:27:32;9.60;99.90
14723;DHT22;7452;55.594;12.986;2022-11-15T05:29:59;9.60;99.90
14723;DHT22;7452;55.594;12.986;2022-11-15T05:32:26;9.60;99.90
14723;DHT22;7452;55.594;12.986;2022-11-15T05:34:54;9.60;99.90
14723;DHT22;7452;55.594;12.986;2022-11-15T05:37:21;9.70;99.90
14723;DHT22;7452;55.594;12.986;2022-11-15T05:39:50;9.70;99.90
14723;DHT22;7452;55.594;12.986;2022-11-15T05:42:17;9.70;99.90
14723;DHT22;7452;55.594;12.986;2022-11-15T05:44:47;9.70;99.90
14723;DHT22;7452;55.594;12.986;2022-11-15T05:47:17;9.70;99.90
14723;DHT22;7452;55.594;12.986;2022-11-15T05:49:47;9.70;99.90
14723;DHT22;7452;55.594;12.986;2022-11-15T05:52:17;9.70;99.90
14723;DHT22;7452;55.594;12.986;2022-11-15T05:54:44;9.70;99.90
14723;DHT22;7452;55.594;12.986;2022-11-15T05:57:13;9.80;99.90
14723;DHT22;7452;55.594;12.986;2022-11-15T05:59:40;9.70;99.90
14723;DHT22;7452;55.594;12.986;2022-11-15T06:02:09;9.70;99.90
14723;DHT22;7452;55.594;12.986;2022-11-15T06:04:36;9.70;99.90
14723;DHT22;7452;55.594;12.986;2022-11-15T06:07:03;9.70;99.90
14723;DHT22;7452;55.594;12.986;2022-11-15T06:09:30;9.80;99.90
14723;DHT22;7452;55.594;12.986;2022-11-15T06:11:57;9.80;99.90
14723;DHT22;7452;55.594;12.986;2022-11-15T06:14:25;9.80;99.90
14723;DHT22;7452;55.594;12.986;2022-11-15T06:16:52;9.80;99.90
14723;DHT22;7452;55.594;12.986;2022-11-15T06:19:19;9.80;99.90
14723;DHT22;7452;55.594;12.986;2022-11-15T06:21:46;9.80;99.90
14723;DHT22;7452;55.594;12.986;2022-11-15T06:24:14;9.80;99.90
14723;DHT22;7452;55.594;12.986;2022-11-15T06:26:41;9.80;99.90
14723;DHT22;7452;55.594;12.986;2022-11-15T06:29:08;9.80;99.90
14723;DHT22;7452;55.594;12.986;2022-11-15T06:31:36;9.80;99.90
14723;DHT22;7452;55.594;12.986;2022-11-15T06:34:03;9.80;99.90
14723;DHT22;7452;55.594;12.986;2022-11-15T06:36:30;9.80;99.90
14723;DHT22;7452;55.594;12.986;2022-11-15T06:38:57;9.80;99.90
14723;DHT22;7452;55.594;12.986;2022-11-15T06:41:24;9.80;99.90
14723;DHT22;7452;55.594;12.986;2022-11-15T06:43:51;9.80;99.90
14723;DHT22;7452;55.594;12.986;2022-11-15T06:46:17;9.90;99.90
14723;DHT22;7452;55.594;12.986;2022-11-15T06:48:46;9.90;99.90
14723;DHT22;7452;55.594;12.986;2022-11-15T06:51:13;9.90;99.90
14723;DHT22;7452;55.594;12.986;2022-11-15T06:53:40;9.90;99.90
14723;DHT22;7452;55.594;12.986;2022-11-15T06:56:07;9.90;99.90
14723;DHT22;7452;55.594;12.986;2022-11-15T06:58:35;9.90;99.90
14723;DHT22;7452;55.594;12.986;2022-11-15T07:01:03;10.00;99.90
14723;DHT22;7452;55.594;12.986;2022-11-15T07:03:31;10.00;99.90
14723;DHT22;7452;55.594;12.986;2022-11-15T07:06:00;9.90;99.90
14723;DHT22;7452;55.594;12.986;2022-11-15T07:08:28;9.90;99.90
14723;DHT22;7452;55.594;12.986;2022-11-15T07:10:58;9.90;99.90
14723;DHT22;7452;55.594;12.986;2022-11-15T07:13:26;10.00;99.90
14723;DHT22;7452;55.594;12.986;2022-11-15T07:15:53;9.90;99.90
14723;DHT22;7452;55.594;12.986;2022-11-15T07:18:20;10.00;99.90
14723;DHT22;7452;55.594;12.986;2022-11-15T07:20:47;10.00;99.90
14723;DHT22;7452;55.594;12.986;2022-11-15T07:23:15;10.00;99.90
14723;DHT22;7452;55.594;12.986;2022-11-15T07:25:42;10.00;99.90
14723;DHT22;7452;55.594;12.986;2022-11-15T07:28:09;10.00;99.90
14723;DHT22;7452;55.594;12.986;2022-11-15T07:30:36;9.90;99.90
14723;DHT22;7452;55.594;12.986;2022-11-15T07:33:03;9.90;99.90
14723;DHT22;7452;55.594;12.986;2022-11-15T07:35:31;9.90;99.90
14723;DHT22;7452;55.594;12.986;2022-11-15T07:37:59;9.90;99.90
14723;DHT22;7452;55.594;12.986;2022-11-15T07:40:29;10.00;99.90
14723;DHT22;7452;55.594;12.986;2022-11-15T07:42:59;10.00;99.90
14723;DHT22;7452;55.594;12.986;2022-11-15T07:45:27;10.00;99.90
14723;DHT22;7452;55.594;12.986;2022-11-15T07:47:54;10.00;99.90
14723;DHT22;7452;55.594;12.986;2022-11-15T07:50:22;10.00;99.90
14723;DHT22;7452;55.594;12.986;2022-11-15T07:52:54;9.90;99.90
14723;DHT22;7452;55.594;12.986;2022-11-15T07:55:22;9.90;99.90
14723;DHT22;7452;55.594;12.986;2022-11-15T07:57:50;9.90;99.90
14723;DHT22;7452;55.594;12.986;2022-11-15T08:00:18;9.90;99.90
14723;DHT22;7452;55.594;12.986;2022-11-15T08:02:45;9.90;99.90
14723;DHT22;7452;55.594;12.986;2022-11-15T08:05:13;9.90;99.90
14723;DHT22;7452;55.594;12.986;2022-11-15T08:07:40;9.90;99.90
14723;DHT22;7452;55.594;12.986;2022-11-15T08:10:08;9.90;99.90
14723;DHT22;7452;55.594;12.986;2022-11-15T08:12:37;9.90;99.90
14723;DHT22;7452;55.594;12.986;2022-11-15T08:15:06;9.90;99.90
14723;DHT22;7452;55.594;12.986;2022-11-15T08:17:33;9.90;99.90
14723;DHT22;7452;55.594;12.986;2022-11-15T08:20:01;9.90;99.90
14723;DHT22;7452;55.594;12.986;2022-11-15T08:22:28;9.90;99.90
14723;DHT22;7452;55.594;12.986;2022-11-15T08:24:55;9.80;99.90
14723;DHT22;7452;55.594;12.986;2022-11-15T08:27:22;9.80;99.90
14723;DHT22;7452;55.594;12.986;2022-11-15T08:29:49;9.90;99.90
14723;DHT22;7452;55.594;12.986;2022-11-15T08:32:18;9.90;99.90
14723;DHT22;7452;55.594;12.986;2022-11-15T08:34:45;9.90;99.90
14723;DHT22;7452;55.594;12.986;2022-11-15T08:37:12;9.90;99.90
14723;DHT22;7452;55.594;12.986;2022-11-15T08:39:38;9.90;99.90
14723;DHT22;7452;55.594;12.986;2022-11-15T08:42:05;9.90;99.90
14723;DHT22;7452;55.594;12.986;2022-11-15T08:44:32;10.00;99.90
14723;DHT22;7452;55.594;12.986;2022-11-15T08:46:59;9.90;99.90
14723;DHT22;7452;55.594;12.986;2022-11-15T08:49:27;9.90;99.90
14723;DHT22;7452;55.594;12.986;2022-11-15T08:51:54;10.00;99.90
14723;DHT22;7452;55.594;12.986;2022-11-15T08:54:21;9.90;99.90
14723;DHT22;7452;55.594;12.986;2022-11-15T08:56:48;9.90;99.90
14723;DHT22;7452;55.594;12.986;2022-11-15T08:59:15;9.90;99.90
14723;DHT22;7452;55.594;12.986;2022-11-15T09:01:43;9.90;99.90
14723;DHT22;7452;55.594;12.986;2022-11-15T09:04:09;9.90;99.90
14723;DHT22;7452;55.594;12.986;2022-11-15T09:06:38;9.90;99.90
14723;DHT22;7452;55.594;12.986;2022-11-15T09:09:05;9.90;99.90
14723;DHT22;7452;55.594;12.986;2022-11-15T09:11:32;9.90;99.90
14723;DHT22;7452;55.594;12.986;2022-11-15T09:13:59;9.90;99.90
14723;DHT22;7452;55.594;12.986;2022-11-15T09:16:26;9.80;99.90
14723;DHT22;7452;55.594;12.986;2022-11-15T09:18:53;9.90;99.90
14723;DHT22;7452;55.594;12.986;2022-11-15T09:21:20;9.90;99.90
14723;DHT22;7452;55.594;12.986;2022-11-15T09:23:50;10.00;99.90
14723;DHT22;7452;55.594;12.986;2022-11-15T09:26:18;10.00;99.90
14723;DHT22;7452;55.594;12.986;2022-11-15T09:28:45;10.00;99.90
14723;DHT22;7452;55.594;12.986;2022-11-15T09:31:11;10.10;99.90
14723;DHT22;7452;55.594;12.986;2022-11-15T09:33:38;10.10;99.90
14723;DHT22;7452;55.594;12.986;2022-11-15T09:36:07;10.10;99.90
14723;DHT22;7452;55.594;12.986;2022-11-15T09:38:35;10.20;99.90
14723;DHT22;7452;55.594;12.986;2022-11-15T09:41:19;10.20;99.90
14723;DHT22;7452;55.594;12.986;2022-11-15T09:43:57;10.20;99.90
14723;DHT22;7452;55.594;12.986;2022-11-15T09:46:35;10.20;99.90
14723;DHT22;7452;55.594;12.986;2022-11-15T09:49:04;10.20;99.90
14723;DHT22;7452;55.594;12.986;2022-11-15T09:51:34;10.30;99.90
14723;DHT22;7452;55.594;12.986;2022-11-15T09:54:21;10.30;99.90
14723;DHT22;7452;55.594;12.986;2022-11-15T09:56:51;10.30;99.90
14723;DHT22;7452;55.594;12.986;2022-11-15T09:59:29;10.30;99.90
14723;DHT22;7452;55.594;12.986;2022-11-15T10:02:03;10.30;99.90
14723;DHT22;7452;55.594;12.986;2022-11-15T10:04:36;10.30;99.90
14723;DHT22;7452;55.594;12.986;2022-11-15T10:07:13;10.30;99.90
14723;DHT22;7452;55.594;12.986;2022-11-15T10:09:45;10.40;99.90
14723;DHT22;7452;55.594;12.986;2022-11-15T10:12:16;10.40;99.90
14723;DHT22;7452;55.594;12.986;2022-11-15T10:14:45;10.30;99.90
14723;DHT22;7452;55.594;12.986;2022-11-15T10:17:40;10.30;99.90
14723;DHT22;7452;55.594;12.986;2022-11-15T10:20:14;10.30;99.90
14723;DHT22;7452;55.594;12.986;2022-11-15T10:22:46;10.30;99.90
14723;DHT22;7452;55.594;12.986;2022-11-15T10:25:20;10.20;99.90
14723;DHT22;7452;55.594;12.986;2022-11-15T10:27:54;10.30;99.90
14723;DHT22;7452;55.594;12.986;2022-11-15T10:30:22;10.30;99.90
14723;DHT22;7452;55.594;12.986;2022-11-15T10:32:50;10.30;99.90
14723;DHT22;7452;55.594;12.986;2022-11-15T10:35:24;10.30;99.90
14723;DHT22;7452;55.594;12.986;2022-11-15T10:37:52;10.20;99.90
14723;DHT22;7452;55.594;12.986;2022-11-15T10:40:30;10.30;99.90
14723;DHT22;7452;55.594;12.986;2022-11-15T10:43:13;10.20;99.90
14723;DHT22;7452;55.594;12.986;2022-11-15T10:45:41;10.20;99.90
14723;DHT22;7452;55.594;12.986;2022-11-15T10:48:24;10.30;99.90
14723;DHT22;7452;55.594;12.986;2022-11-15T10:50:53;10.20;99.90
14723;DHT22;7452;55.594;12.986;2022-11-15T10:53:29;10.20;99.90
14723;DHT22;7452;55.594;12.986;2022-11-15T10:56:01;10.20;99.90
14723;DHT22;7452;55.594;12.986;2022-11-15T10:58:34;10.20;99.90
14723;DHT22;7452;55.594;12.986;2022-11-15T11:01:16;10.20;99.90
14723;DHT22;7452;55.594;12.986;2022-11-15T11:03:44;10.20;99.90
14723;DHT22;7452;55.594;12.986;2022-11-15T11:06:14;10.20;99.90
14723;DHT22;7452;55.594;12.986;2022-11-15T11:08:54;10.20;99.90
14723;DHT22;7452;55.594;12.986;2022-11-15T11:11:22;10.20;99.90
14723;DHT22;7452;55.594;12.986;2022-11-15T11:13:51;10.20;99.90
14723;DHT22;7452;55.594;12.986;2022-11-15T11:16:42;10.20;99.90
14723;DHT22;7452;55.594;12.986;2022-11-15T11:22:09;10.20;99.90
14723;DHT22;7452;55.594;12.986;2022-11-15T11:24:45;10.20;99.90
14723;DHT22;7452;55.594;12.986;2022-11-15T11:27:25;10.20;99.90
14723;DHT22;7452;55.594;12.986;2022-11-15T11:30:04;10.20;99.90
14723;DHT22;7452;55.594;12.986;2022-11-15T11:32:50;10.20;99.90
14723;DHT22;7452;55.594;12.986;2022-11-15T11:35:22;10.20;99.90
14723;DHT22;7452;55.594;12.986;2022-11-15T11:37:53;10.20;99.90
14723;DHT22;7452;55.594;12.986;2022-11-15T11:40:32;10.20;99.90
14723;DHT22;7452;55.594;12.986;2022-11-15T11:43:06;10.20;99.90
14723;DHT22;7452;55.594;12.986;2022-11-15T11:48:48;10.30;99.90
14723;DHT22;7452;55.594;12.986;2022-11-15T11:51:22;10.30;99.90
14723;DHT22;7452;55.594;12.986;2022-11-15T11:53:54;10.30;99.90
14723;DHT22;7452;55.594;12.986;2022-11-15T11:56:26;10.30;99.90
14723;DHT22;7452;55.594;12.986;2022-11-15T11:58:55;10.30;99.90
14723;DHT22;7452;55.594;12.986;2022-11-15T12:01:28;10.30;99.90
14723;DHT22;7452;55.594;12.986;2022-11-15T12:04:03;10.20;99.90
14723;DHT22;7452;55.594;12.986;2022-11-15T12:06:35;10.20;99.90
14723;DHT22;7452;55.594;12.986;2022-11-15T12:09:11;10.30;99.90
14723;DHT22;7452;55.594;12.986;2022-11-15T12:11:47;10.20;99.90
14723;DHT22;7452;55.594;12.986;2022-11-15T12:14:24;10.20;99.90
14723;DHT22;7452;55.594;12.986;2022-11-15T12:16:54;10.30;99.90
14723;DHT22;7452;55.594;12.986;2022-11-15T12:19:21;10.20;99.90
14723;DHT22;7452;55.594;12.986;2022-11-15T12:21:54;10.30;99.90
14723;DHT22;7452;55.594;12.986;2022-11-15T12:24:26;10.30;99.90
14723;DHT22;7452;55.594;12.986;2022-11-15T12:26:59;10.30;99.90
14723;DHT22;7452;55.594;12.986;2022-11-15T12:29:31;10.30;99.90
14723;DHT22;7452;55.594;12.986;2022-11-15T12:32:01;10.30;99.90
14723;DHT22;7452;55.594;12.986;2022-11-15T12:34:39;10.30;99.90
14723;DHT22;7452;55.594;12.986;2022-11-15T12:37:32;10.30;99.90
14723;DHT22;7452;55.594;12.986;2022-11-15T12:40:16;10.30;99.90
14723;DHT22;7452;55.594;12.986;2022-11-15T12:42:59;10.30;99.90
14723;DHT22;7452;55.594;12.986;2022-11-15T12:45:28;10.40;99.90
14723;DHT22;7452;55.594;12.986;2022-11-15T12:51:06;10.30;99.90
14723;DHT22;7452;55.594;12.986;2022-11-15T12:53:33;10.30;99.90
14723;DHT22;7452;55.594;12.986;2022-11-15T12:56:25;10.30;99.90
14723;DHT22;7452;55.594;12.986;2022-11-15T12:58:54;10.30;99.90
14723;DHT22;7452;55.594;12.986;2022-11-15T13:01:57;10.30;99.90
14723;DHT22;7452;55.594;12.986;2022-11-15T13:04:29;10.30;99.90
14723;DHT22;7452;55.594;12.986;2022-11-15T13:06:59;10.40;99.90
14723;DHT22;7452;55.594;12.986;2022-11-15T13:09:52;10.40;99.90
14723;DHT22;7452;55.594;12.986;2022-11-15T13:12:49;10.40;99.90
14723;DHT22;7452;55.594;12.986;2022-11-15T13:15:51;10.40;99.90
14723;DHT22;7452;55.594;12.986;2022-11-15T13:18:37;10.40;99.90
14723;DHT22;7452;55.594;12.986;2022-11-15T13:21:20;10.40;99.90
14723;DHT22;7452;55.594;12.986;2022-11-15T13:24:09;10.40;99.90
14723;DHT22;7452;55.594;12.986;2022-11-15T13:26:39;10.40;99.90
14723;DHT22;7452;55.594;12.986;2022-11-15T13:29:15;10.40;99.90
14723;DHT22;7452;55.594;12.986;2022-11-15T13:31:43;10.40;99.90
14723;DHT22;7452;55.594;12.986;2022-11-15T13:34:20;10.40;99.90
14723;DHT22;7452;55.594;12.986;2022-11-15T13:36:49;10.40;99.90
14723;DHT22;7452;55.594;12.986;2022-11-15T13:39:26;10.40;99.90
14723;DHT22;7452;55.594;12.986;2022-11-15T13:41:53;10.30;99.90
14723;DHT22;7452;55.594;12.986;2022-11-15T13:44:21;10.30;99.90
14723;DHT22;7452;55.594;12.986;2022-11-15T13:47:00;10.30;99.90
14723;DHT22;7452;55.594;12.986;2022-11-15T13:49:30;10.30;99.90
14723;DHT22;7452;55.594;12.986;2022-11-15T13:52:00;10.20;99.90
14723;DHT22;7452;55.594;12.986;2022-11-15T13:54:30;10.20;99.90
14723;DHT22;7452;55.594;12.986;2022-11-15T13:57:02;10.20;99.90
14723;DHT22;7452;55.594;12.986;2022-11-15T13:59:32;10.20;99.90
14723;DHT22;7452;55.594;12.986;2022-11-15T14:02:03;10.10;99.90
14723;DHT22;7452;55.594;12.986;2022-11-15T14:04:39;10.10;99.90
14723;DHT22;7452;55.594;12.986;2022-11-15T14:07:17;10.10;99.90
14723;DHT22;7452;55.594;12.986;2022-11-15T14:09:45;10.10;99.90
14723;DHT22;7452;55.594;12.986;2022-11-15T14:12:25;10.10;99.90
14723;DHT22;7452;55.594;12.986;2022-11-15T14:14:52;10.10;99.90
14723;DHT22;7452;55.594;12.986;2022-11-15T14:17:21;10.10;99.90
14723;DHT22;7452;55.594;12.986;2022-11-15T14:19:59;10.10;99.90
14723;DHT22;7452;55.594;12.986;2022-11-15T14:22:29;10.10;99.90
14723;DHT22;7452;55.594;12.986;2022-11-15T14:25:13;10.10;99.90
14723;DHT22;7452;55.594;12.986;2022-11-15T14:27:42;10.10;99.90
14723;DHT22;7452;55.594;12.986;2022-11-15T14:30:13;10.00;99.90
14723;DHT22;7452;55.594;12.986;2022-11-15T14:32:44;10.10;99.90
14723;DHT22;7452;55.594;12.986;2022-11-15T14:35:16;10.10;99.90
14723;DHT22;7452;55.594;12.986;2022-11-15T14:37:45;10.10;99.90
14723;DHT22;7452;55.594;12.986;2022-11-15T14:40:14;10.00;99.90
14723;DHT22;7452;55.594;12.986;2022-11-15T14:42:42;10.10;99.90
14723;DHT22;7452;55.594;12.986;2022-11-15T14:45:13;10.00;99.90
14723;DHT22;7452;55.594;12.986;2022-11-15T14:47:41;10.10;99.90
14723;DHT22;7452;55.594;12.986;2022-11-15T14:50:11;10.10;99.90
14723;DHT22;7452;55.594;12.986;2022-11-15T14:52:39;10.10;99.90
14723;DHT22;7452;55.594;12.986;2022-11-15T14:55:16;10.10;99.90
14723;DHT22;7452;55.594;12.986;2022-11-15T14:57:44;10.10;99.90
14723;DHT22;7452;55.594;12.986;2022-11-15T15:00:12;10.00;99.90
14723;DHT22;7452;55.594;12.986;2022-11-15T15:02:40;10.00;99.90
14723;DHT22;7452;55.594;12.986;2022-11-15T15:05:14;10.00;99.90
14723;DHT22;7452;55.594;12.986;2022-11-15T15:07:42;10.00;99.90
14723;DHT22;7452;55.594;12.986;2022-11-15T15:10:09;10.00;99.90
14723;DHT22;7452;55.594;12.986;2022-11-15T15:12:38;10.00;99.90
14723;DHT22;7452;55.594;12.986;2022-11-15T15:15:09;10.00;99.90
14723;DHT22;7452;55.594;12.986;2022-11-15T15:17:38;10.00;99.90
14723;DHT22;7452;55.594;12.986;2022-11-15T15:20:06;10.00;99.90
14723;DHT22;7452;55.594;12.986;2022-11-15T15:22:33;10.00;99.90
14723;DHT22;7452;55.594;12.986;2022-11-15T15:25:00;10.00;99.90
14723;DHT22;7452;55.594;12.986;2022-11-15T15:27:28;10.00;99.90
14723;DHT22;7452;55.594;12.986;2022-11-15T15:29:56;10.00;99.90
14723;DHT22;7452;55.594;12.986;2022-11-15T15:32:23;10.00;99.90
14723;DHT22;7452;55.594;12.986;2022-11-15T15:34:50;10.00;99.90
14723;DHT22;7452;55.594;12.986;2022-11-15T15:37:22;10.00;99.90
14723;DHT22;7452;55.594;12.986;2022-11-15T15:39:50;10.00;99.90
14723;DHT22;7452;55.594;12.986;2022-11-15T15:42:18;10.00;99.90
14723;DHT22;7452;55.594;12.986;2022-11-15T15:44:45;10.00;99.90
14723;DHT22;7452;55.594;12.986;2022-11-15T15:47:14;10.00;99.90
14723;DHT22;7452;55.594;12.986;2022-11-15T15:49:43;10.00;99.90
14723;DHT22;7452;55.594;12.986;2022-11-15T15:52:10;9.90;99.90
14723;DHT22;7452;55.594;12.986;2022-11-15T15:54:37;10.00;99.90
14723;DHT22;7452;55.594;12.986;2022-11-15T15:57:05;10.00;99.90
14723;DHT22;7452;55.594;12.986;2022-11-15T15:59:32;10.00;99.90
14723;DHT22;7452;55.594;12.986;2022-11-15T16:01:59;10.00;99.90
14723;DHT22;7452;55.594;12.986;2022-11-15T16:04:28;10.00;99.90
14723;DHT22;7452;55.594;12.986;2022-11-15T16:06:58;10.00;99.90
14723;DHT22;7452;55.594;12.986;2022-11-15T16:09:25;9.90;99.90
14723;DHT22;7452;55.594;12.986;2022-11-15T16:12:06;9.90;99.90
14723;DHT22;7452;55.594;12.986;2022-11-15T16:14:33;9.90;99.90
14723;DHT22;7452;55.594;12.986;2022-11-15T16:17:00;9.90;99.90